createdAt,value
2023-02-19T00:02:07.449Z,12.26
2023-02-19T00:05:16.159Z,12.21
2023-02-19T00:08:24.494Z,12.20
2023-02-19T00:11:35.250Z,12.17
2023-02-19T00:14:43.456Z,12.18
2023-02-19T00:17:58.492Z,12.18
2023-02-19T00:21:07.310Z,12.08
2023-02-19T00:24:19.461Z,12.08
2023-02-19T00:27:28.017Z,12.13
2023-02-19T00:30:42.531Z,12.11
2023-02-19T00:33:45.911Z,12.06
2023-02-19T00:37:00.519Z,11.99
2023-02-19T00:40:08.436Z,12.01
2023-02-19T00:43:17.050Z,12.00
2023-02-19T00:46:36.619Z,11.98
2023-02-19T00:49:45.113Z,12.01
2023-02-19T00:52:53.497Z,12.02
2023-02-19T00:56:09.940Z,12.04
2023-02-19T00:59:24.466Z,12.05
2023-02-19T01:02:32.544Z,12.06
2023-02-19T01:05:41.230Z,12.07
2023-02-19T01:08:56.435Z,12.12
2023-02-19T01:12:06.635Z,12.10
2023-02-19T01:15:15.505Z,12.13
2023-02-19T01:18:30.464Z,12.15
2023-02-19T01:21:32.451Z,12.08
2023-02-19T01:24:47.481Z,12.11
2023-02-19T01:27:49.270Z,12.21
2023-02-19T01:31:08.901Z,12.23
2023-02-19T01:34:18.586Z,12.24
2023-02-19T01:37:33.517Z,12.18
2023-02-19T01:40:42.458Z,12.25
2023-02-19T01:44:06.487Z,12.19
2023-02-19T01:47:15.498Z,12.04
2023-02-19T01:50:34.513Z,12.06
2023-02-19T01:53:47.758Z,12.04
2023-02-19T01:57:13.529Z,11.96
2023-02-19T02:00:17.026Z,11.89
2023-02-19T02:03:32.555Z,11.82
2023-02-19T02:06:58.539Z,11.77
2023-02-19T02:10:07.433Z,11.85
2023-02-19T02:13:16.482Z,11.80
2023-02-19T02:16:41.649Z,11.86
2023-02-19T02:20:19.509Z,11.83
2023-02-19T02:23:47.576Z,11.81
2023-02-19T02:27:17.511Z,11.76
2023-02-19T02:30:37.678Z,11.88
2023-02-19T02:34:15.556Z,11.83
2023-02-19T02:37:17.474Z,11.90
2023-02-19T02:40:32.499Z,11.90
2023-02-19T02:43:34.713Z,11.90
2023-02-19T02:46:52.553Z,11.86
2023-02-19T02:50:03.594Z,11.79
2023-02-19T02:53:42.529Z,11.86
2023-02-19T02:56:59.552Z,11.88
2023-02-19T03:00:15.532Z,11.90
2023-02-19T03:03:27.468Z,11.88
2023-02-19T03:06:39.592Z,11.81
2023-02-19T03:09:49.707Z,11.86
2023-02-19T03:13:08.530Z,11.89
2023-02-19T03:16:25.567Z,11.91
2023-02-19T03:19:41.131Z,11.93
2023-02-19T03:22:52.585Z,11.90
2023-02-19T03:26:01.567Z,11.88
2023-02-19T03:29:19.548Z,11.82
2023-02-19T03:32:34.533Z,11.71
2023-02-19T03:35:56.199Z,11.68
2023-02-19T03:39:12.536Z,11.82
2023-02-19T03:42:42.389Z,11.88
2023-02-19T03:46:13.630Z,11.68
2023-02-19T03:49:27.227Z,11.68
2023-02-19T03:53:08.582Z,11.66
2023-02-19T03:56:34.650Z,11.69
2023-02-19T03:59:53.153Z,11.69
2023-02-19T04:03:22.559Z,11.70
2023-02-19T04:06:40.566Z,11.70
2023-02-19T04:09:48.810Z,11.76
2023-02-19T04:13:12.561Z,11.77
2023-02-19T04:16:27.602Z,11.73
2023-02-19T04:19:39.871Z,11.79
2023-02-19T04:22:48.581Z,11.82
2023-02-19T04:26:00.326Z,11.73
2023-02-19T04:29:09.636Z,11.77
2023-02-19T04:32:24.655Z,11.73
2023-02-19T04:35:26.473Z,11.72
2023-02-19T04:38:41.595Z,11.62
2023-02-19T04:41:43.485Z,11.48
2023-02-19T04:44:58.614Z,11.54
2023-02-19T04:48:00.473Z,11.49
2023-02-19T04:51:16.638Z,11.47
2023-02-19T04:54:25.662Z,11.52
2023-02-19T04:57:35.173Z,11.49
2023-02-19T05:00:44.593Z,11.48
2023-02-19T05:03:53.228Z,11.52
2023-02-19T05:07:01.634Z,11.43
2023-02-19T05:10:10.246Z,11.44
2023-02-19T05:13:20.669Z,11.34
2023-02-19T05:16:29.370Z,11.13
2023-02-19T05:19:37.617Z,11.04
2023-02-19T05:22:52.622Z,11.05
2023-02-19T05:25:54.902Z,10.99
2023-02-19T05:29:09.620Z,10.89
2023-02-19T05:32:17.661Z,10.93
2023-02-19T05:35:32.627Z,10.99
2023-02-19T05:38:41.633Z,11.04
2023-02-19T05:41:50.366Z,11.02
2023-02-19T05:44:58.647Z,11.09
2023-02-19T05:48:14.589Z,11.13
2023-02-19T05:51:19.309Z,11.13
2023-02-19T05:54:36.641Z,11.17
2023-02-19T05:57:47.837Z,11.12
2023-02-19T06:00:56.617Z,11.16
2023-02-19T06:04:05.737Z,11.17
2023-02-19T06:07:14.658Z,11.13
2023-02-19T06:10:23.737Z,11.12
2023-02-19T06:13:31.650Z,11.10
2023-02-19T06:16:40.608Z,11.05
2023-02-19T06:19:48.698Z,10.97
2023-02-19T06:22:57.586Z,11.02
2023-02-19T06:26:15.649Z,10.97
2023-02-19T06:29:25.486Z,10.96
2023-02-19T06:32:33.664Z,10.97
2023-02-19T06:35:48.641Z,10.89
2023-02-19T06:38:57.689Z,10.75
2023-02-19T06:42:12.686Z,10.69
2023-02-19T06:45:20.654Z,10.61
2023-02-19T06:48:37.685Z,10.57
2023-02-19T06:51:39.596Z,10.49
2023-02-19T06:55:01.729Z,10.43
2023-02-19T06:58:16.677Z,10.41
2023-02-19T07:01:26.628Z,10.41
2023-02-19T07:04:34.701Z,10.33
2023-02-19T07:07:45.851Z,10.30
2023-02-19T07:11:02.905Z,10.10
2023-02-19T07:14:21.690Z,9.87
2023-02-19T07:17:23.518Z,9.87
2023-02-19T07:20:39.692Z,10.00
2023-02-19T07:23:41.838Z,10.04
2023-02-19T07:26:56.689Z,9.83
2023-02-19T07:30:04.685Z,9.72
2023-02-19T07:33:14.565Z,9.72
2023-02-19T07:36:24.671Z,9.83
2023-02-19T07:39:33.557Z,9.82
2023-02-19T07:42:41.765Z,9.82
2023-02-19T07:45:51.506Z,9.84
2023-02-19T07:48:59.712Z,9.92
2023-02-19T07:52:14.717Z,9.94
2023-02-19T07:55:32.285Z,9.91
2023-02-19T07:58:41.711Z,9.95
2023-02-19T08:01:57.703Z,9.97
2023-02-19T08:05:13.686Z,10.06
2023-02-19T08:08:16.045Z,10.10
2023-02-19T08:11:30.682Z,10.11
2023-02-19T08:14:45.734Z,10.04
2023-02-19T08:18:00.690Z,10.11
2023-02-19T08:21:11.462Z,10.05
2023-02-19T08:24:19.703Z,9.93
2023-02-19T08:27:28.380Z,9.84
2023-02-19T08:30:45.840Z,9.80
2023-02-19T08:33:55.774Z,10.05
2023-02-19T08:37:04.474Z,9.94
2023-02-19T08:40:12.750Z,9.95
2023-02-19T08:43:21.373Z,10.18
2023-02-19T08:46:35.737Z,10.50
2023-02-19T08:49:44.761Z,10.77
2023-02-19T08:52:52.713Z,10.88
2023-02-19T08:56:16.697Z,10.91
2023-02-19T08:59:24.729Z,10.93
2023-02-19T09:02:39.817Z,11.11
2023-02-19T09:05:41.986Z,11.13
2023-02-19T09:08:56.794Z,11.19
2023-02-19T09:12:05.760Z,11.36
2023-02-19T09:15:20.696Z,11.22
2023-02-19T09:18:29.567Z,11.23
2023-02-19T09:21:48.753Z,11.27
2023-02-19T09:24:50.654Z,11.16
2023-02-19T09:28:05.733Z,11.05
2023-02-19T09:31:17.106Z,10.98
2023-02-19T09:34:26.990Z,11.06
2023-02-19T09:37:41.736Z,10.99
2023-02-19T09:40:43.793Z,10.96
2023-02-19T09:43:59.812Z,11.03
2023-02-19T09:47:11.750Z,11.21
2023-02-19T09:50:25.409Z,11.26
2023-02-19T09:53:46.778Z,11.38
2023-02-19T09:57:03.834Z,11.33
2023-02-19T10:00:22.777Z,11.63
2023-02-19T10:03:34.832Z,11.76
2023-02-19T10:06:43.921Z,11.82
2023-02-19T10:09:59.040Z,11.59
2023-02-19T10:13:30.365Z,11.71
2023-02-19T10:16:33.637Z,11.84
2023-02-19T10:19:48.733Z,12.01
2023-02-19T10:23:04.226Z,12.19
2023-02-19T10:26:18.736Z,12.25
2023-02-19T10:29:22.467Z,12.37
2023-02-19T10:32:36.754Z,12.76
2023-02-19T10:36:03.917Z,13.11
2023-02-19T10:39:35.200Z,13.19
2023-02-19T10:42:53.824Z,13.33
2023-02-19T10:46:20.852Z,13.23
2023-02-19T10:49:39.830Z,13.30
2023-02-19T10:53:01.767Z,13.44
2023-02-19T10:56:22.620Z,13.26
2023-02-19T10:59:37.786Z,13.26
2023-02-19T11:02:45.807Z,13.32
2023-02-19T11:06:02.038Z,13.49
2023-02-19T11:09:10.770Z,13.64
2023-02-19T11:12:26.957Z,13.81
2023-02-19T11:15:38.817Z,13.95
2023-02-19T11:18:57.014Z,14.00
2023-02-19T11:22:07.849Z,14.08
2023-02-19T11:25:27.802Z,14.14
2023-02-19T11:28:46.814Z,14.20
2023-02-19T11:31:49.124Z,14.15
2023-02-19T11:35:23.803Z,14.12
2023-02-19T11:38:32.809Z,14.11
2023-02-19T11:42:13.809Z,14.10
2023-02-19T11:45:37.085Z,14.20
2023-02-19T11:49:01.860Z,14.24
2023-02-19T11:52:28.824Z,14.47
2023-02-19T11:56:01.488Z,19.93
2023-02-19T11:59:11.795Z,22.57
2023-02-19T12:02:37.576Z,23.28
2023-02-19T12:06:04.835Z,23.59
2023-02-19T12:09:33.269Z,24.71
2023-02-19T12:13:11.806Z,23.99
2023-02-19T12:16:44.901Z,24.32
2023-02-19T12:20:22.929Z,23.18
2023-02-19T12:23:51.622Z,23.15
2023-02-19T12:27:31.822Z,23.80
2023-02-19T12:30:59.893Z,23.88
2023-02-19T12:34:34.850Z,23.72
2023-02-19T12:38:09.861Z,22.83
2023-02-19T12:41:28.354Z,22.80
2023-02-19T12:44:53.877Z,23.49
2023-02-19T12:48:30.863Z,24.37
2023-02-19T12:51:50.934Z,23.62
2023-02-19T12:55:17.833Z,22.21
2023-02-19T12:58:45.849Z,20.71
2023-02-19T13:02:10.897Z,15.50
2023-02-19T13:05:41.848Z,14.43
2023-02-19T13:09:06.639Z,13.38
2023-02-19T13:12:35.885Z,12.68
2023-02-19T13:15:55.837Z,12.47
2023-02-19T13:19:08.977Z,12.77
2023-02-19T13:22:42.982Z,14.98
2023-02-19T13:26:12.038Z,19.34
2023-02-19T13:29:58.842Z,16.50
2023-02-19T13:33:21.912Z,18.82
2023-02-19T13:36:37.884Z,18.54
2023-02-19T13:39:55.874Z,19.12
2023-02-19T13:43:21.528Z,18.46
2023-02-19T13:46:31.921Z,17.15
2023-02-19T13:49:41.397Z,16.07
2023-02-19T13:52:49.994Z,15.19
2023-02-19T13:56:43.913Z,14.19
2023-02-19T13:59:48.384Z,13.76
2023-02-19T14:03:33.849Z,13.33
2023-02-19T14:07:02.437Z,12.38
2023-02-19T14:10:39.915Z,11.96
2023-02-19T14:13:58.726Z,11.92
2023-02-19T14:17:37.029Z,11.94
2023-02-19T14:20:45.851Z,11.88
2023-02-19T14:24:00.026Z,12.07
2023-02-19T14:27:14.868Z,12.05
2023-02-19T14:30:27.398Z,12.05
2023-02-19T14:33:39.914Z,11.96
2023-02-19T14:40:11.889Z,12.29
2023-02-19T14:43:24.176Z,12.48
2023-02-19T14:46:38.972Z,12.35
2023-02-19T14:49:51.844Z,12.27
2023-02-19T14:53:04.918Z,12.38
2023-02-19T14:56:24.466Z,12.17
2023-02-19T14:59:38.896Z,12.15
2023-02-19T15:02:55.908Z,12.10
2023-02-19T15:06:18.885Z,11.93
2023-02-19T15:09:38.964Z,11.95
2023-02-19T15:12:51.560Z,11.79
2023-02-19T15:16:06.970Z,11.74
2023-02-19T15:19:12.946Z,11.88
2023-02-19T15:22:31.050Z,11.90
2023-02-19T15:25:39.973Z,11.87
2023-02-19T15:29:03.945Z,11.91
2023-02-19T15:32:18.560Z,11.83
2023-02-19T15:35:34.999Z,11.80
2023-02-19T15:38:43.941Z,11.73
2023-02-19T15:42:00.120Z,11.69
2023-02-19T15:45:17.992Z,11.51
2023-02-19T15:48:35.020Z,11.38
2023-02-19T15:51:53.973Z,11.37
2023-02-19T15:55:32.945Z,11.42
2023-02-19T15:58:52.605Z,11.33
2023-02-19T16:02:08.969Z,11.29
2023-02-19T16:05:33.981Z,11.34
2023-02-19T16:08:44.985Z,11.29
2023-02-19T16:12:03.994Z,11.31
2023-02-19T16:15:14.805Z,11.22
2023-02-19T16:18:29.979Z,11.17
2023-02-19T16:21:39.010Z,11.14
2023-02-19T16:24:57.921Z,11.19
2023-02-19T16:28:07.045Z,11.12
2023-02-19T16:31:16.193Z,11.20
2023-02-19T16:34:38.038Z,11.10
2023-02-19T16:37:58.549Z,11.19
2023-02-19T16:41:17.958Z,11.13
2023-02-19T16:44:39.969Z,11.26
2023-02-19T16:47:49.064Z,11.03
2023-02-19T16:51:05.025Z,11.04
2023-02-19T16:54:09.422Z,10.86
2023-02-19T16:57:25.004Z,10.71
2023-02-19T17:00:38.013Z,10.60
2023-02-19T17:03:47.087Z,10.45
2023-02-19T17:06:56.016Z,10.41
2023-02-19T17:10:05.213Z,10.37
2023-02-19T17:13:21.002Z,10.38
2023-02-19T17:16:33.019Z,10.33
2023-02-19T17:19:42.037Z,10.31
2023-02-19T17:22:57.971Z,10.02
2023-02-19T17:26:13.018Z,10.13
2023-02-19T17:29:16.530Z,10.19
2023-02-19T17:32:31.242Z,10.26
2023-02-19T17:35:33.337Z,10.23
2023-02-19T17:38:48.990Z,10.22
2023-02-19T17:41:57.985Z,10.24
2023-02-19T17:45:14.023Z,10.17
2023-02-19T17:48:23.008Z,10.12
2023-02-19T17:51:37.968Z,10.07
2023-02-19T17:54:40.245Z,10.07
2023-02-19T17:58:01.984Z,10.16
2023-02-19T18:01:11.516Z,10.17
2023-02-19T18:04:27.046Z,10.15
2023-02-19T18:07:29.237Z,10.08
2023-02-19T18:10:44.977Z,10.12
2023-02-19T18:13:48.161Z,10.19
2023-02-19T18:17:04.101Z,10.20
2023-02-19T18:20:18.638Z,10.23
2023-02-19T18:23:34.062Z,10.25
2023-02-19T18:26:50.003Z,10.25
2023-02-19T18:30:06.108Z,10.29
2023-02-19T18:33:15.099Z,10.25
2023-02-19T18:36:30.115Z,10.28
2023-02-19T18:39:46.039Z,10.15
2023-02-19T18:42:54.102Z,10.06
2023-02-19T18:46:03.013Z,10.07
2023-02-19T18:49:12.082Z,10.04
2023-02-19T18:52:22.662Z,10.02
2023-02-19T18:55:32.381Z,9.98
2023-02-19T18:58:41.026Z,9.92
2023-02-19T19:01:50.081Z,10.09
2023-02-19T19:05:05.069Z,10.05
2023-02-19T19:08:07.233Z,9.90
2023-02-19T19:11:23.039Z,9.93
2023-02-19T19:14:25.528Z,10.01
2023-02-19T19:17:41.029Z,10.08
2023-02-19T19:20:52.036Z,10.01
2023-02-19T19:24:02.165Z,9.83
2023-02-19T19:27:11.054Z,9.82
2023-02-19T19:30:20.432Z,9.81
2023-02-19T19:33:36.358Z,9.82
2023-02-19T19:36:45.072Z,9.51
2023-02-19T19:39:54.129Z,9.43
2023-02-19T19:43:09.070Z,9.42
2023-02-19T19:46:19.340Z,9.30
2023-02-19T19:49:30.114Z,9.36
2023-02-19T19:52:46.193Z,9.43
2023-02-19T19:55:48.372Z,9.34
2023-02-19T19:59:03.066Z,9.40
2023-02-19T20:02:06.877Z,9.39
2023-02-19T20:05:23.101Z,9.19
2023-02-19T20:08:25.449Z,9.13
2023-02-19T20:11:40.101Z,9.16
2023-02-19T20:14:46.060Z,9.30
2023-02-19T20:18:02.109Z,9.34
2023-02-19T20:21:18.077Z,9.30
2023-02-19T20:24:34.052Z,9.41
2023-02-19T20:27:43.021Z,9.37
2023-02-19T20:30:59.163Z,9.50
2023-02-19T20:34:14.038Z,9.47
2023-02-19T20:37:16.681Z,9.44
2023-02-19T20:40:33.082Z,9.48
2023-02-19T20:43:35.205Z,9.27
2023-02-19T20:46:56.056Z,9.20
2023-02-19T20:49:58.237Z,9.12
2023-02-19T20:53:14.122Z,9.28
2023-02-19T20:56:16.251Z,9.12
2023-02-19T20:59:39.076Z,9.05
2023-02-19T21:02:41.250Z,9.06
2023-02-19T21:05:57.091Z,9.15
2023-02-19T21:08:59.270Z,8.87
2023-02-19T21:12:15.188Z,8.89
2023-02-19T21:15:17.345Z,8.89
2023-02-19T21:18:32.100Z,8.83
2023-02-19T21:21:41.111Z,8.82
2023-02-19T21:24:57.082Z,8.74
2023-02-19T21:27:59.072Z,8.39
2023-02-19T21:31:15.136Z,8.34
2023-02-19T21:34:27.128Z,8.26
2023-02-19T21:37:35.789Z,8.17
2023-02-19T21:40:44.080Z,8.15
2023-02-19T21:43:55.007Z,8.02
2023-02-19T21:47:04.126Z,7.99
2023-02-19T21:50:13.146Z,7.86
2023-02-19T21:53:22.101Z,7.88
2023-02-19T21:56:39.138Z,7.64
2023-02-19T21:59:41.305Z,7.70
2023-02-19T22:02:57.122Z,7.63
2023-02-19T22:06:01.869Z,7.63
2023-02-19T22:09:17.090Z,7.50
2023-02-19T22:12:26.117Z,7.36
2023-02-19T22:15:35.213Z,7.44
2023-02-19T22:18:44.133Z,7.20
2023-02-19T22:21:53.154Z,7.36
2023-02-19T22:25:01.161Z,7.17
2023-02-19T22:28:16.122Z,7.17
2023-02-19T22:31:20.425Z,6.93
2023-02-19T22:34:35.143Z,7.04
2023-02-19T22:37:37.048Z,6.90
2023-02-19T22:40:52.191Z,6.94
2023-02-19T22:43:55.347Z,6.80
2023-02-19T22:47:10.165Z,6.95
2023-02-19T22:50:20.897Z,6.92
2023-02-19T22:53:36.155Z,6.89
2023-02-19T22:56:37.998Z,6.90
2023-02-19T23:00:00.170Z,6.79
2023-02-19T23:03:08.149Z,6.81
2023-02-19T23:06:27.116Z,6.77
2023-02-19T23:09:36.134Z,6.67
2023-02-19T23:12:44.760Z,6.73
2023-02-19T23:15:59.113Z,6.62
2023-02-19T23:19:01.916Z,6.48
2023-02-19T23:22:16.140Z,6.57
2023-02-19T23:25:18.117Z,6.63
2023-02-19T23:28:33.161Z,6.51
2023-02-19T23:31:35.167Z,6.68
2023-02-19T23:34:50.197Z,6.70
2023-02-19T23:37:52.053Z,6.48
2023-02-19T23:41:07.162Z,6.64
2023-02-19T23:44:24.209Z,6.63
2023-02-19T23:47:26.104Z,6.62
2023-02-19T23:50:45.203Z,6.66
2023-02-19T23:53:47.118Z,6.55
2023-02-19T23:57:09.173Z,6.50
